ADDS TAF Data INFO
IDs: Format: Raw Decoded Include METARs

Data at: 1534 UTC 23 Jun 2018

KABQ 231452Z 01008KT 10SM FEW200 26/M07 A3003 RMK AO2 SLP065 T02561072 53009

KABQ 231130Z 2312/2412 VRB06KT P6SM FEW250
  FM231700 27006KT P6SM SKC
  FM232200 26010G18KT P6SM FEW150
  FM240200 32007KT P6SM SKC
  FM240600 VRB05KT P6SM SKC